sensor_id;sensor_type;location;lat;lon;timestamp;temperature;humidity
47805;DHT22;33568;45.286;9.900;2022-07-22T00:00:02;33.60;51.80
47805;DHT22;33568;45.286;9.900;2022-07-22T00:02:31;33.50;51.80
47805;DHT22;33568;45.286;9.900;2022-07-22T00:04:57;33.50;51.80
47805;DHT22;33568;45.286;9.900;2022-07-22T00:07:24;33.40;52.00
47805;DHT22;33568;45.286;9.900;2022-07-22T00:09:50;33.30;52.00
47805;DHT22;33568;45.286;9.900;2022-07-22T00:12:17;33.30;51.90
47805;DHT22;33568;45.286;9.900;2022-07-22T00:14:45;33.20;52.00
47805;DHT22;33568;45.286;9.900;2022-07-22T00:17:12;33.20;52.10
47805;DHT22;33568;45.286;9.900;2022-07-22T00:19:39;33.20;52.10
47805;DHT22;33568;45.286;9.900;2022-07-22T00:22:05;33.20;52.10
47805;DHT22;33568;45.286;9.900;2022-07-22T00:24:31;33.10;52.10
47805;DHT22;33568;45.286;9.900;2022-07-22T00:26:59;33.00;52.20
47805;DHT22;33568;45.286;9.900;2022-07-22T00:29:25;33.00;52.20
47805;DHT22;33568;45.286;9.900;2022-07-22T00:31:52;33.00;52.20
47805;DHT22;33568;45.286;9.900;2022-07-22T00:34:18;33.00;52.10
47805;DHT22;33568;45.286;9.900;2022-07-22T00:36:47;33.00;52.00
47805;DHT22;33568;45.286;9.900;2022-07-22T00:39:13;33.00;52.00
47805;DHT22;33568;45.286;9.900;2022-07-22T00:41:41;33.00;51.90
47805;DHT22;33568;45.286;9.900;2022-07-22T00:44:08;33.00;52.00
47805;DHT22;33568;45.286;9.900;2022-07-22T00:46:36;32.90;51.90
47805;DHT22;33568;45.286;9.900;2022-07-22T00:49:06;33.00;52.00
47805;DHT22;33568;45.286;9.900;2022-07-22T00:51:34;33.00;51.90
47805;DHT22;33568;45.286;9.900;2022-07-22T00:54:02;32.90;51.80
47805;DHT22;33568;45.286;9.900;2022-07-22T00:56:30;32.80;51.80
47805;DHT22;33568;45.286;9.900;2022-07-22T00:59:01;32.80;51.80
47805;DHT22;33568;45.286;9.900;2022-07-22T01:01:30;32.80;51.40
47805;DHT22;33568;45.286;9.900;2022-07-22T01:03:57;32.70;51.50
47805;DHT22;33568;45.286;9.900;2022-07-22T01:06:25;32.70;52.10
47805;DHT22;33568;45.286;9.900;2022-07-22T01:08:51;32.60;51.60
47805;DHT22;33568;45.286;9.900;2022-07-22T01:11:19;32.60;51.80
47805;DHT22;33568;45.286;9.900;2022-07-22T01:13:47;32.50;51.90
47805;DHT22;33568;45.286;9.900;2022-07-22T01:16:17;32.50;51.90
47805;DHT22;33568;45.286;9.900;2022-07-22T01:18:45;32.50;51.90
47805;DHT22;33568;45.286;9.900;2022-07-22T01:21:12;32.60;51.90
47805;DHT22;33568;45.286;9.900;2022-07-22T01:23:40;32.50;51.70
47805;DHT22;33568;45.286;9.900;2022-07-22T01:26:07;32.60;51.60
47805;DHT22;33568;45.286;9.900;2022-07-22T01:28:37;32.60;51.60
47805;DHT22;33568;45.286;9.900;2022-07-22T01:31:04;32.60;51.60
47805;DHT22;33568;45.286;9.900;2022-07-22T01:33:30;32.50;51.50
47805;DHT22;33568;45.286;9.900;2022-07-22T01:35:57;32.50;51.60
47805;DHT22;33568;45.286;9.900;2022-07-22T01:38:24;32.40;51.60
47805;DHT22;33568;45.286;9.900;2022-07-22T01:40:51;32.40;51.70
47805;DHT22;33568;45.286;9.900;2022-07-22T01:43:17;32.40;51.80
47805;DHT22;33568;45.286;9.900;2022-07-22T01:45:49;32.30;51.70
47805;DHT22;33568;45.286;9.900;2022-07-22T01:48:16;32.30;51.60
47805;DHT22;33568;45.286;9.900;2022-07-22T01:50:43;32.40;51.70
47805;DHT22;33568;45.286;9.900;2022-07-22T01:53:11;32.40;51.60
47805;DHT22;33568;45.286;9.900;2022-07-22T01:55:38;32.40;51.60
47805;DHT22;33568;45.286;9.900;2022-07-22T01:58:05;32.30;51.50
47805;DHT22;33568;45.286;9.900;2022-07-22T02:00:34;32.30;51.50
47805;DHT22;33568;45.286;9.900;2022-07-22T02:03:03;32.20;51.60
47805;DHT22;33568;45.286;9.900;2022-07-22T02:05:32;32.20;51.70
47805;DHT22;33568;45.286;9.900;2022-07-22T02:08:07;32.10;51.80
47805;DHT22;33568;45.286;9.900;2022-07-22T02:11:10;32.10;51.70
47805;DHT22;33568;45.286;9.900;2022-07-22T02:13:49;32.10;51.60
47805;DHT22;33568;45.286;9.900;2022-07-22T02:16:16;32.10;51.60
47805;DHT22;33568;45.286;9.900;2022-07-22T02:18:42;32.10;51.50
47805;DHT22;33568;45.286;9.900;2022-07-22T02:21:09;32.10;51.50
47805;DHT22;33568;45.286;9.900;2022-07-22T02:23:35;32.00;51.50
47805;DHT22;33568;45.286;9.900;2022-07-22T02:26:02;32.00;51.70
47805;DHT22;33568;45.286;9.900;2022-07-22T02:28:31;32.00;51.80
47805;DHT22;33568;45.286;9.900;2022-07-22T02:30:57;31.90;51.80
47805;DHT22;33568;45.286;9.900;2022-07-22T02:33:24;31.90;51.80
47805;DHT22;33568;45.286;9.900;2022-07-22T02:35:50;31.90;51.90
47805;DHT22;33568;45.286;9.900;2022-07-22T02:38:16;31.80;51.90
47805;DHT22;33568;45.286;9.900;2022-07-22T02:40:43;31.90;51.90
47805;DHT22;33568;45.286;9.900;2022-07-22T02:43:11;31.90;52.00
47805;DHT22;33568;45.286;9.900;2022-07-22T02:45:38;31.90;51.90
47805;DHT22;33568;45.286;9.900;2022-07-22T02:48:05;31.80;51.90
47805;DHT22;33568;45.286;9.900;2022-07-22T02:50:33;31.80;52.00
47805;DHT22;33568;45.286;9.900;2022-07-22T02:53:00;31.80;52.00
47805;DHT22;33568;45.286;9.900;2022-07-22T02:55:30;31.80;52.10
47805;DHT22;33568;45.286;9.900;2022-07-22T02:58:04;31.80;52.00
47805;DHT22;33568;45.286;9.900;2022-07-22T03:00:32;31.80;52.00
47805;DHT22;33568;45.286;9.900;2022-07-22T03:02:58;31.80;52.00
47805;DHT22;33568;45.286;9.900;2022-07-22T03:05:25;31.80;52.00
47805;DHT22;33568;45.286;9.900;2022-07-22T03:07:59;31.70;51.90
47805;DHT22;33568;45.286;9.900;2022-07-22T03:10:26;31.70;52.00
47805;DHT22;33568;45.286;9.900;2022-07-22T03:12:52;31.70;52.10
47805;DHT22;33568;45.286;9.900;2022-07-22T03:15:19;31.70;52.10
47805;DHT22;33568;45.286;9.900;2022-07-22T03:17:45;31.60;52.20
47805;DHT22;33568;45.286;9.900;2022-07-22T03:20:12;31.50;52.20
47805;DHT22;33568;45.286;9.900;2022-07-22T03:22:38;31.50;52.30
47805;DHT22;33568;45.286;9.900;2022-07-22T03:25:06;31.50;52.30
47805;DHT22;33568;45.286;9.900;2022-07-22T03:27:32;31.50;52.40
47805;DHT22;33568;45.286;9.900;2022-07-22T03:30:02;31.50;52.40
47805;DHT22;33568;45.286;9.900;2022-07-22T03:32:31;31.50;52.40
47805;DHT22;33568;45.286;9.900;2022-07-22T03:34:58;31.50;52.40
47805;DHT22;33568;45.286;9.900;2022-07-22T03:37:25;31.50;52.40
47805;DHT22;33568;45.286;9.900;2022-07-22T03:39:53;31.50;52.50
47805;DHT22;33568;45.286;9.900;2022-07-22T03:42:19;31.50;52.50
47805;DHT22;33568;45.286;9.900;2022-07-22T03:44:47;31.40;52.40
47805;DHT22;33568;45.286;9.900;2022-07-22T03:47:21;31.50;52.40
47805;DHT22;33568;45.286;9.900;2022-07-22T03:49:49;31.40;52.40
47805;DHT22;33568;45.286;9.900;2022-07-22T03:52:25;31.40;52.60
47805;DHT22;33568;45.286;9.900;2022-07-22T03:54:52;31.30;52.70
47805;DHT22;33568;45.286;9.900;2022-07-22T03:57:20;31.30;52.90
47805;DHT22;33568;45.286;9.900;2022-07-22T03:59:52;31.20;52.90
47805;DHT22;33568;45.286;9.900;2022-07-22T04:02:21;31.20;52.90
47805;DHT22;33568;45.286;9.900;2022-07-22T04:04:48;31.20;53.00
47805;DHT22;33568;45.286;9.900;2022-07-22T04:07:16;31.10;53.00
47805;DHT22;33568;45.286;9.900;2022-07-22T04:09:43;31.00;53.10
47805;DHT22;33568;45.286;9.900;2022-07-22T04:12:09;31.00;53.40
47805;DHT22;33568;45.286;9.900;2022-07-22T04:14:51;31.00;53.50
47805;DHT22;33568;45.286;9.900;2022-07-22T04:17:19;31.00;53.40
47805;DHT22;33568;45.286;9.900;2022-07-22T04:19:45;31.10;53.40
47805;DHT22;33568;45.286;9.900;2022-07-22T04:22:21;31.10;53.40
47805;DHT22;33568;45.286;9.900;2022-07-22T04:24:48;31.00;53.40
47805;DHT22;33568;45.286;9.900;2022-07-22T04:27:14;31.00;53.50
47805;DHT22;33568;45.286;9.900;2022-07-22T04:29:41;31.00;53.60
47805;DHT22;33568;45.286;9.900;2022-07-22T04:32:08;31.00;53.60
47805;DHT22;33568;45.286;9.900;2022-07-22T04:34:36;31.00;53.40
47805;DHT22;33568;45.286;9.900;2022-07-22T04:37:03;30.80;53.30
47805;DHT22;33568;45.286;9.900;2022-07-22T04:39:34;30.70;53.40
47805;DHT22;33568;45.286;9.900;2022-07-22T04:42:01;30.60;53.60
47805;DHT22;33568;45.286;9.900;2022-07-22T04:44:29;30.60;53.80
47805;DHT22;33568;45.286;9.900;2022-07-22T04:46:56;30.50;54.00
47805;DHT22;33568;45.286;9.900;2022-07-22T04:49:22;30.40;54.10
47805;DHT22;33568;45.286;9.900;2022-07-22T04:51:49;30.30;54.20
47805;DHT22;33568;45.286;9.900;2022-07-22T04:54:30;30.30;54.40
47805;DHT22;33568;45.286;9.900;2022-07-22T04:56:58;30.30;54.50
47805;DHT22;33568;45.286;9.900;2022-07-22T04:59:25;30.20;54.60
47805;DHT22;33568;45.286;9.900;2022-07-22T05:01:52;30.20;54.70
47805;DHT22;33568;45.286;9.900;2022-07-22T05:04:19;30.30;54.90
47805;DHT22;33568;45.286;9.900;2022-07-22T05:06:46;30.30;54.90
47805;DHT22;33568;45.286;9.900;2022-07-22T05:09:12;30.20;55.00
47805;DHT22;33568;45.286;9.900;2022-07-22T05:11:40;30.10;55.10
47805;DHT22;33568;45.286;9.900;2022-07-22T05:14:07;30.10;55.50
47805;DHT22;33568;45.286;9.900;2022-07-22T05:16:35;30.10;55.80
47805;DHT22;33568;45.286;9.900;2022-07-22T05:19:05;30.10;56.10
47805;DHT22;33568;45.286;9.900;2022-07-22T05:21:33;30.10;56.10
47805;DHT22;33568;45.286;9.900;2022-07-22T05:24:00;30.10;56.20
47805;DHT22;33568;45.286;9.900;2022-07-22T05:26:26;30.10;56.10
47805;DHT22;33568;45.286;9.900;2022-07-22T05:28:55;30.30;56.10
47805;DHT22;33568;45.286;9.900;2022-07-22T05:31:23;30.30;56.20
47805;DHT22;33568;45.286;9.900;2022-07-22T05:33:50;30.30;56.30
47805;DHT22;33568;45.286;9.900;2022-07-22T05:36:35;30.30;56.10
47805;DHT22;33568;45.286;9.900;2022-07-22T05:39:04;30.40;56.30
47805;DHT22;33568;45.286;9.900;2022-07-22T05:41:30;30.50;56.10
47805;DHT22;33568;45.286;9.900;2022-07-22T05:43:57;30.60;55.90
47805;DHT22;33568;45.286;9.900;2022-07-22T05:46:24;30.60;55.90
47805;DHT22;33568;45.286;9.900;2022-07-22T05:48:50;30.60;56.10
47805;DHT22;33568;45.286;9.900;2022-07-22T05:51:19;30.40;56.50
47805;DHT22;33568;45.286;9.900;2022-07-22T05:53:46;30.30;56.80
47805;DHT22;33568;45.286;9.900;2022-07-22T05:56:13;30.30;56.90
47805;DHT22;33568;45.286;9.900;2022-07-22T05:58:41;30.30;57.00
47805;DHT22;33568;45.286;9.900;2022-07-22T06:01:10;30.20;57.00
47805;DHT22;33568;45.286;9.900;2022-07-22T06:03:38;30.20;56.90
47805;DHT22;33568;45.286;9.900;2022-07-22T06:06:05;30.10;57.20
47805;DHT22;33568;45.286;9.900;2022-07-22T06:08:36;30.10;57.20
47805;DHT22;33568;45.286;9.900;2022-07-22T06:11:04;30.20;57.10
47805;DHT22;33568;45.286;9.900;2022-07-22T06:13:31;30.10;57.00
47805;DHT22;33568;45.286;9.900;2022-07-22T06:15:59;30.20;57.10
47805;DHT22;33568;45.286;9.900;2022-07-22T06:18:27;30.40;56.90
47805;DHT22;33568;45.286;9.900;2022-07-22T06:20:53;30.50;56.50
47805;DHT22;33568;45.286;9.900;2022-07-22T06:23:21;30.60;56.20
47805;DHT22;33568;45.286;9.900;2022-07-22T06:25:49;30.60;55.90
47805;DHT22;33568;45.286;9.900;2022-07-22T06:28:23;30.70;55.90
47805;DHT22;33568;45.286;9.900;2022-07-22T06:30:52;30.70;55.60
47805;DHT22;33568;45.286;9.900;2022-07-22T06:33:19;30.70;55.30
47805;DHT22;33568;45.286;9.900;2022-07-22T06:35:46;30.90;55.10
47805;DHT22;33568;45.286;9.900;2022-07-22T06:38:13;30.90;54.80
47805;DHT22;33568;45.286;9.900;2022-07-22T06:41:18;31.10;54.70
47805;DHT22;33568;45.286;9.900;2022-07-22T06:44:05;31.20;54.60
47805;DHT22;33568;45.286;9.900;2022-07-22T06:46:44;31.20;54.60
47805;DHT22;33568;45.286;9.900;2022-07-22T06:49:11;31.30;54.50
47805;DHT22;33568;45.286;9.900;2022-07-22T06:51:38;31.30;54.50
47805;DHT22;33568;45.286;9.900;2022-07-22T06:54:04;31.30;55.00
47805;DHT22;33568;45.286;9.900;2022-07-22T06:56:31;31.40;54.20
47805;DHT22;33568;45.286;9.900;2022-07-22T06:58:58;31.50;54.00
47805;DHT22;33568;45.286;9.900;2022-07-22T07:01:26;31.50;54.20
47805;DHT22;33568;45.286;9.900;2022-07-22T07:03:54;31.40;54.60
47805;DHT22;33568;45.286;9.900;2022-07-22T07:06:20;31.30;54.80
47805;DHT22;33568;45.286;9.900;2022-07-22T07:09:15;31.30;55.10
47805;DHT22;33568;45.286;9.900;2022-07-22T07:11:48;31.50;54.80
47805;DHT22;33568;45.286;9.900;2022-07-22T07:14:37;31.80;54.70
47805;DHT22;33568;45.286;9.900;2022-07-22T07:17:06;31.70;55.00
47805;DHT22;33568;45.286;9.900;2022-07-22T07:19:32;31.70;55.30
47805;DHT22;33568;45.286;9.900;2022-07-22T07:21:59;31.70;55.30
47805;DHT22;33568;45.286;9.900;2022-07-22T07:24:25;31.70;55.30
47805;DHT22;33568;45.286;9.900;2022-07-22T07:26:52;31.80;55.30
47805;DHT22;33568;45.286;9.900;2022-07-22T07:29:18;31.90;55.00
47805;DHT22;33568;45.286;9.900;2022-07-22T07:31:45;32.10;54.80
47805;DHT22;33568;45.286;9.900;2022-07-22T07:34:14;32.10;54.40
47805;DHT22;33568;45.286;9.900;2022-07-22T07:36:41;32.10;54.20
47805;DHT22;33568;45.286;9.900;2022-07-22T07:39:09;32.20;54.00
47805;DHT22;33568;45.286;9.900;2022-07-22T07:41:35;32.40;53.90
47805;DHT22;33568;45.286;9.900;2022-07-22T07:44:05;32.60;53.80
47805;DHT22;33568;45.286;9.900;2022-07-22T07:46:32;32.80;53.60
47805;DHT22;33568;45.286;9.900;2022-07-22T07:48:58;33.00;53.20
47805;DHT22;33568;45.286;9.900;2022-07-22T07:51:25;33.20;52.90
47805;DHT22;33568;45.286;9.900;2022-07-22T07:53:53;33.30;52.40
47805;DHT22;33568;45.286;9.900;2022-07-22T07:56:19;33.40;52.30
47805;DHT22;33568;45.286;9.900;2022-07-22T07:58:49;33.40;52.20
47805;DHT22;33568;45.286;9.900;2022-07-22T08:01:16;33.60;52.00
47805;DHT22;33568;45.286;9.900;2022-07-22T08:03:44;33.70;51.60
47805;DHT22;33568;45.286;9.900;2022-07-22T08:06:10;33.80;51.20
47805;DHT22;33568;45.286;9.900;2022-07-22T08:08:37;33.90;51.30
47805;DHT22;33568;45.286;9.900;2022-07-22T08:11:13;33.90;51.50
47805;DHT22;33568;45.286;9.900;2022-07-22T08:14:08;33.80;51.20
47805;DHT22;33568;45.286;9.900;2022-07-22T08:16:55;33.80;51.30
47805;DHT22;33568;45.286;9.900;2022-07-22T08:19:22;33.80;51.00
47805;DHT22;33568;45.286;9.900;2022-07-22T08:21:49;33.80;50.70
47805;DHT22;33568;45.286;9.900;2022-07-22T08:24:25;34.10;50.40
47805;DHT22;33568;45.286;9.900;2022-07-22T08:26:52;34.10;50.30
47805;DHT22;33568;45.286;9.900;2022-07-22T08:29:18;34.20;50.20
47805;DHT22;33568;45.286;9.900;2022-07-22T08:31:46;34.40;49.80
47805;DHT22;33568;45.286;9.900;2022-07-22T08:34:15;34.60;49.60
47805;DHT22;33568;45.286;9.900;2022-07-22T08:36:42;34.70;49.20
47805;DHT22;33568;45.286;9.900;2022-07-22T08:39:10;34.80;48.70
47805;DHT22;33568;45.286;9.900;2022-07-22T08:41:37;34.90;48.80
47805;DHT22;33568;45.286;9.900;2022-07-22T08:44:08;35.00;48.70
47805;DHT22;33568;45.286;9.900;2022-07-22T08:46:35;35.00;48.50
47805;DHT22;33568;45.286;9.900;2022-07-22T08:49:21;35.10;48.70
47805;DHT22;33568;45.286;9.900;2022-07-22T08:52:12;35.30;48.40
47805;DHT22;33568;45.286;9.900;2022-07-22T08:54:42;35.30;48.00
47805;DHT22;33568;45.286;9.900;2022-07-22T08:57:17;35.40;47.80
47805;DHT22;33568;45.286;9.900;2022-07-22T08:59:50;35.40;47.30
47805;DHT22;33568;45.286;9.900;2022-07-22T09:02:17;35.60;47.20
47805;DHT22;33568;45.286;9.900;2022-07-22T09:04:59;35.60;46.90
47805;DHT22;33568;45.286;9.900;2022-07-22T09:07:39;35.70;47.10
47805;DHT22;33568;45.286;9.900;2022-07-22T09:10:18;35.70;46.80
47805;DHT22;33568;45.286;9.900;2022-07-22T09:13:09;35.70;46.90
47805;DHT22;33568;45.286;9.900;2022-07-22T09:16:14;35.60;46.80
47805;DHT22;33568;45.286;9.900;2022-07-22T09:19:06;35.70;46.50
47805;DHT22;33568;45.286;9.900;2022-07-22T09:22:03;35.80;46.30
47805;DHT22;33568;45.286;9.900;2022-07-22T09:24:51;35.90;46.30
47805;DHT22;33568;45.286;9.900;2022-07-22T09:27:32;35.90;46.10
47805;DHT22;33568;45.286;9.900;2022-07-22T09:30:27;36.00;46.00
47805;DHT22;33568;45.286;9.900;2022-07-22T09:33:05;36.10;45.90
47805;DHT22;33568;45.286;9.900;2022-07-22T09:35:39;36.10;45.70
47805;DHT22;33568;45.286;9.900;2022-07-22T09:38:10;36.10;45.80
47805;DHT22;33568;45.286;9.900;2022-07-22T09:40:40;36.00;46.30
47805;DHT22;33568;45.286;9.900;2022-07-22T09:43:13;36.20;46.40
47805;DHT22;33568;45.286;9.900;2022-07-22T09:45:50;36.40;46.10
47805;DHT22;33568;45.286;9.900;2022-07-22T09:48:19;36.60;45.20
47805;DHT22;33568;45.286;9.900;2022-07-22T09:50:54;36.70;45.10
47805;DHT22;33568;45.286;9.900;2022-07-22T09:53:49;36.90;44.90
47805;DHT22;33568;45.286;9.900;2022-07-22T09:56:23;37.10;44.80
47805;DHT22;33568;45.286;9.900;2022-07-22T09:58:50;37.20;44.30
47805;DHT22;33568;45.286;9.900;2022-07-22T10:01:25;37.40;44.40
47805;DHT22;33568;45.286;9.900;2022-07-22T10:03:52;37.40;44.00
47805;DHT22;33568;45.286;9.900;2022-07-22T10:06:21;37.30;43.60
47805;DHT22;33568;45.286;9.900;2022-07-22T10:08:50;37.50;43.20
47805;DHT22;33568;45.286;9.900;2022-07-22T10:11:17;37.40;42.70
47805;DHT22;33568;45.286;9.900;2022-07-22T10:13:45;37.40;43.40
47805;DHT22;33568;45.286;9.900;2022-07-22T10:16:14;37.50;44.20
47805;DHT22;33568;45.286;9.900;2022-07-22T10:18:45;37.50;43.00
47805;DHT22;33568;45.286;9.900;2022-07-22T10:21:13;37.50;42.70
47805;DHT22;33568;45.286;9.900;2022-07-22T10:24:09;37.40;42.60
47805;DHT22;33568;45.286;9.900;2022-07-22T10:26:55;37.40;42.50
47805;DHT22;33568;45.286;9.900;2022-07-22T10:29:29;37.70;42.50
47805;DHT22;33568;45.286;9.900;2022-07-22T10:37:37;38.30;42.00
47805;DHT22;33568;45.286;9.900;2022-07-22T10:40:14;38.50;41.80
47805;DHT22;33568;45.286;9.900;2022-07-22T10:45:40;38.80;41.80
47805;DHT22;33568;45.286;9.900;2022-07-22T10:48:09;38.90;41.60
47805;DHT22;33568;45.286;9.900;2022-07-22T10:53:05;39.10;41.50
47805;DHT22;33568;45.286;9.900;2022-07-22T10:55:32;39.20;41.50
47805;DHT22;33568;45.286;9.900;2022-07-22T10:57:59;39.40;41.60
47805;DHT22;33568;45.286;9.900;2022-07-22T11:00:26;39.40;41.20
47805;DHT22;33568;45.286;9.900;2022-07-22T11:02:53;39.40;40.80
47805;DHT22;33568;45.286;9.900;2022-07-22T11:05:27;39.40;40.60
47805;DHT22;33568;45.286;9.900;2022-07-22T11:07:53;39.30;40.40
47805;DHT22;33568;45.286;9.900;2022-07-22T11:10:20;39.40;40.90
47805;DHT22;33568;45.286;9.900;2022-07-22T11:12:48;39.50;40.80
47805;DHT22;33568;45.286;9.900;2022-07-22T11:15:15;39.50;40.10
47805;DHT22;33568;45.286;9.900;2022-07-22T11:17:46;39.50;39.80
47805;DHT22;33568;45.286;9.900;2022-07-22T11:20:13;39.60;39.90
47805;DHT22;33568;45.286;9.900;2022-07-22T11:22:46;39.60;40.10
47805;DHT22;33568;45.286;9.900;2022-07-22T11:25:14;39.80;40.30
47805;DHT22;33568;45.286;9.900;2022-07-22T11:27:51;40.00;40.40
47805;DHT22;33568;45.286;9.900;2022-07-22T11:30:19;40.10;39.20
47805;DHT22;33568;45.286;9.900;2022-07-22T11:32:46;40.20;39.50
47805;DHT22;33568;45.286;9.900;2022-07-22T11:35:13;40.10;39.30
47805;DHT22;33568;45.286;9.900;2022-07-22T11:37:40;40.10;39.40
47805;DHT22;33568;45.286;9.900;2022-07-22T11:40:08;40.20;39.40
47805;DHT22;33568;45.286;9.900;2022-07-22T11:42:35;40.20;39.20
47805;DHT22;33568;45.286;9.900;2022-07-22T11:45:03;40.10;39.30
47805;DHT22;33568;45.286;9.900;2022-07-22T11:47:30;40.00;39.20
47805;DHT22;33568;45.286;9.900;2022-07-22T11:49:57;40.10;39.30
47805;DHT22;33568;45.286;9.900;2022-07-22T11:52:25;40.20;39.50
47805;DHT22;33568;45.286;9.900;2022-07-22T11:54:52;40.30;39.20
47805;DHT22;33568;45.286;9.900;2022-07-22T11:57:18;40.40;39.30
47805;DHT22;33568;45.286;9.900;2022-07-22T11:59:45;40.40;39.60
47805;DHT22;33568;45.286;9.900;2022-07-22T12:02:13;40.40;39.60
47805;DHT22;33568;45.286;9.900;2022-07-22T12:04:43;40.20;39.40
47805;DHT22;33568;45.286;9.900;2022-07-22T12:07:12;40.20;39.50
47805;DHT22;33568;45.286;9.900;2022-07-22T12:09:41;40.10;39.10
47805;DHT22;33568;45.286;9.900;2022-07-22T12:12:09;40.30;39.10
47805;DHT22;33568;45.286;9.900;2022-07-22T12:14:35;40.40;39.00
47805;DHT22;33568;45.286;9.900;2022-07-22T12:17:07;40.40;38.90
47805;DHT22;33568;45.286;9.900;2022-07-22T12:19:36;40.40;38.70
47805;DHT22;33568;45.286;9.900;2022-07-22T12:22:11;40.30;38.90
47805;DHT22;33568;45.286;9.900;2022-07-22T12:24:42;40.40;38.80
47805;DHT22;33568;45.286;9.900;2022-07-22T12:27:16;40.50;38.00
47805;DHT22;33568;45.286;9.900;2022-07-22T12:29:46;40.50;37.40
47805;DHT22;33568;45.286;9.900;2022-07-22T12:35:06;40.70;36.60
47805;DHT22;33568;45.286;9.900;2022-07-22T12:37:41;40.80;35.50
47805;DHT22;33568;45.286;9.900;2022-07-22T12:42:40;40.50;36.10
47805;DHT22;33568;45.286;9.900;2022-07-22T12:45:18;40.60;35.10
47805;DHT22;33568;45.286;9.900;2022-07-22T12:53:10;40.60;35.10
47805;DHT22;33568;45.286;9.900;2022-07-22T12:55:41;40.70;35.30
47805;DHT22;33568;45.286;9.900;2022-07-22T12:58:08;40.60;35.70
47805;DHT22;33568;45.286;9.900;2022-07-22T13:00:40;40.70;35.90
47805;DHT22;33568;45.286;9.900;2022-07-22T13:03:07;40.70;35.80
47805;DHT22;33568;45.286;9.900;2022-07-22T13:05:34;40.70;36.00
47805;DHT22;33568;45.286;9.900;2022-07-22T13:08:02;40.70;36.00
47805;DHT22;33568;45.286;9.900;2022-07-22T13:10:30;40.80;36.10
47805;DHT22;33568;45.286;9.900;2022-07-22T13:12:57;40.60;36.40
47805;DHT22;33568;45.286;9.900;2022-07-22T13:15:23;40.60;36.70
47805;DHT22;33568;45.286;9.900;2022-07-22T13:17:50;40.60;37.10
47805;DHT22;33568;45.286;9.900;2022-07-22T13:20:17;40.70;37.40
47805;DHT22;33568;45.286;9.900;2022-07-22T13:22:44;40.80;37.20
47805;DHT22;33568;45.286;9.900;2022-07-22T13:25:12;40.90;36.80
47805;DHT22;33568;45.286;9.900;2022-07-22T13:27:39;40.90;36.90
47805;DHT22;33568;45.286;9.900;2022-07-22T13:30:06;40.90;36.90
47805;DHT22;33568;45.286;9.900;2022-07-22T13:32:33;40.90;36.90
47805;DHT22;33568;45.286;9.900;2022-07-22T13:34:59;41.00;37.10
47805;DHT22;33568;45.286;9.900;2022-07-22T13:37:26;41.10;37.20
47805;DHT22;33568;45.286;9.900;2022-07-22T13:39:52;41.20;37.10
47805;DHT22;33568;45.286;9.900;2022-07-22T13:42:19;41.20;37.00
47805;DHT22;33568;45.286;9.900;2022-07-22T13:44:47;41.30;37.10
47805;DHT22;33568;45.286;9.900;2022-07-22T13:47:14;41.40;36.60
47805;DHT22;33568;45.286;9.900;2022-07-22T13:49:41;41.20;36.60
47805;DHT22;33568;45.286;9.900;2022-07-22T13:52:07;41.30;36.90
47805;DHT22;33568;45.286;9.900;2022-07-22T13:54:34;41.40;37.10
47805;DHT22;33568;45.286;9.900;2022-07-22T13:57:01;41.40;36.80
47805;DHT22;33568;45.286;9.900;2022-07-22T13:59:29;41.40;37.00
47805;DHT22;33568;45.286;9.900;2022-07-22T14:01:57;41.50;37.00
47805;DHT22;33568;45.286;9.900;2022-07-22T14:04:24;41.50;37.10
47805;DHT22;33568;45.286;9.900;2022-07-22T14:06:51;41.60;37.10
47805;DHT22;33568;45.286;9.900;2022-07-22T14:09:17;41.50;37.10
47805;DHT22;33568;45.286;9.900;2022-07-22T14:11:44;41.50;37.20
47805;DHT22;33568;45.286;9.900;2022-07-22T14:14:10;41.50;37.20
47805;DHT22;33568;45.286;9.900;2022-07-22T14:16:37;41.50;37.00
47805;DHT22;33568;45.286;9.900;2022-07-22T14:21:30;41.50;37.20
47805;DHT22;33568;45.286;9.900;2022-07-22T14:23:57;41.40;36.90
47805;DHT22;33568;45.286;9.900;2022-07-22T14:26:23;41.40;37.10
47805;DHT22;33568;45.286;9.900;2022-07-22T14:28:50;41.50;37.30
47805;DHT22;33568;45.286;9.900;2022-07-22T14:31:16;41.50;37.10
47805;DHT22;33568;45.286;9.900;2022-07-22T14:33:43;41.60;37.10
47805;DHT22;33568;45.286;9.900;2022-07-22T14:36:09;41.70;37.30
47805;DHT22;33568;45.286;9.900;2022-07-22T14:38:36;41.70;37.20
47805;DHT22;33568;45.286;9.900;2022-07-22T14:41:02;41.80;37.20
47805;DHT22;33568;45.286;9.900;2022-07-22T14:43:29;41.80;37.00
47805;DHT22;33568;45.286;9.900;2022-07-22T14:45:55;41.90;37.00
47805;DHT22;33568;45.286;9.900;2022-07-22T14:48:22;42.00;36.80
47805;DHT22;33568;45.286;9.900;2022-07-22T14:50:48;41.90;36.70
47805;DHT22;33568;45.286;9.900;2022-07-22T14:53:15;41.90;37.10
47805;DHT22;33568;45.286;9.900;2022-07-22T14:55:43;41.80;37.10
47805;DHT22;33568;45.286;9.900;2022-07-22T14:58:09;41.80;36.90
47805;DHT22;33568;45.286;9.900;2022-07-22T15:00:36;41.70;37.10
47805;DHT22;33568;45.286;9.900;2022-07-22T15:03:02;41.60;37.20
47805;DHT22;33568;45.286;9.900;2022-07-22T15:05:29;41.60;37.30
47805;DHT22;33568;45.286;9.900;2022-07-22T15:07:55;41.50;37.10
47805;DHT22;33568;45.286;9.900;2022-07-22T15:10:22;41.50;37.40
47805;DHT22;33568;45.286;9.900;2022-07-22T15:12:49;41.50;37.80
47805;DHT22;33568;45.286;9.900;2022-07-22T15:15:15;41.60;38.00
47805;DHT22;33568;45.286;9.900;2022-07-22T15:17:42;41.60;37.70
47805;DHT22;33568;45.286;9.900;2022-07-22T15:20:10;41.60;37.50
47805;DHT22;33568;45.286;9.900;2022-07-22T15:22:36;41.60;37.30
47805;DHT22;33568;45.286;9.900;2022-07-22T15:25:03;41.60;37.30
47805;DHT22;33568;45.286;9.900;2022-07-22T15:27:30;41.50;37.50
47805;DHT22;33568;45.286;9.900;2022-07-22T15:29:57;41.50;37.50
47805;DHT22;33568;45.286;9.900;2022-07-22T15:32:24;41.50;37.50
47805;DHT22;33568;45.286;9.900;2022-07-22T15:34:51;41.60;37.80
47805;DHT22;33568;45.286;9.900;2022-07-22T15:37:19;41.50;38.00
47805;DHT22;33568;45.286;9.900;2022-07-22T15:39:47;41.50;37.90
47805;DHT22;33568;45.286;9.900;2022-07-22T15:42:14;41.40;37.80
47805;DHT22;33568;45.286;9.900;2022-07-22T15:44:40;41.20;37.90
47805;DHT22;33568;45.286;9.900;2022-07-22T15:47:07;41.10;38.00
47805;DHT22;33568;45.286;9.900;2022-07-22T15:49:33;41.10;38.30
47805;DHT22;33568;45.286;9.900;2022-07-22T15:52:00;41.10;38.80
47805;DHT22;33568;45.286;9.900;2022-07-22T15:54:26;41.10;38.90
47805;DHT22;33568;45.286;9.900;2022-07-22T15:56:54;41.00;38.30
47805;DHT22;33568;45.286;9.900;2022-07-22T15:59:40;41.10;38.00
47805;DHT22;33568;45.286;9.900;2022-07-22T16:02:09;41.20;37.70
47805;DHT22;33568;45.286;9.900;2022-07-22T16:04:36;41.20;37.30
47805;DHT22;33568;45.286;9.900;2022-07-22T16:07:03;41.10;36.90